South Barre, Vermont
Current Conditions -  °F | °C
As of 8:51 PM on Thursday 20 Nov 2014 (Local Time) from KMPV Reporting Station
Broken Clouds Broken Clouds  
Wind Chill: 16°   Ceiling: 7500
Heat Index: 24°   Visibility: 10mi
Dew Point:   Wind: 7mph
Humidity: 51%   Direction: NA
Pressure: 29.83"   Gusts: NA
Location:  44.16°N, 72.51°W
Report Text: KMPV 210151Z AUTO VRB06KT 10SM BKN075 M04/M13 A2983 RMK AO2 SLP119 T10441133
Loading
Personal Weather Stations






























Interactive Weather Map New forecast layout! Learn more

10-Day Weather Forecast

Advertisements
Track Severe Weather on mobile